Time;durP1;ratioP1;P1;durP2;ratioP2;P2;SDS_P1;SDS_P2;PMS_P1;PMS_P2;Temp;Humidity;BMP_temperature;BMP_pressure;BME280_temperature;BME280_humidity;BME280_pressure;Samples;Min_cycle;Max_cycle;Signal;HPM_P1;HPM_P2
2022/07/24 00:01:44;;;;;;;4.43;4.03;;;;;;;17.46;69.33;100708.88;5046419;28;20057;-63
2022/07/24 00:04:11;;;;;;;5.05;4.43;;;;;;;17.48;69.08;100702.91;5044226;28;20049;-63
2022/07/24 00:06:39;;;;;;;5.53;4.28;;;;;;;17.45;69.25;100704.44;5043712;28;20057;-63
2022/07/24 00:09:07;;;;;;;6.68;4.10;;;;;;;17.37;69.33;100700.56;5045595;28;20582;-63
2022/07/24 00:11:35;;;;;;;4.65;4.00;;;;;;;17.33;69.45;100701.63;5045624;28;20053;-62
2022/07/24 00:14:02;;;;;;;4.55;3.78;;;;;;;17.31;69.48;100701.16;5054606;28;20064;-63
2022/07/24 00:16:30;;;;;;;6.07;4.30;;;;;;;17.30;69.32;100691.88;5044210;28;20048;-63
2022/07/24 00:18:58;;;;;;;5.80;4.23;;;;;;;17.27;69.54;100683.34;5045569;28;20409;-63
2022/07/24 00:21:25;;;;;;;4.80;4.05;;;;;;;17.25;69.74;100690.13;5043925;28;20216;-64
2022/07/24 00:23:53;;;;;;;5.47;4.45;;;;;;;17.23;69.80;100681.22;5057729;28;20055;-63
2022/07/24 00:26:20;;;;;;;4.88;4.30;;;;;;;17.21;69.58;100685.56;5047334;28;20049;-63
2022/07/24 00:28:48;;;;;;;5.25;4.55;;;;;;;17.16;70.14;100683.81;5045518;28;20045;-62
2022/07/24 00:31:15;;;;;;;5.90;4.22;;;;;;;17.14;70.09;100679.72;5045821;28;20056;-63
2022/07/24 00:33:44;;;;;;;5.32;4.80;;;;;;;17.14;70.09;100672.09;5045409;28;20072;-64
2022/07/24 00:36:11;;;;;;;5.35;4.60;;;;;;;17.13;70.45;100680.91;5046289;28;20060;-62
2022/07/24 00:38:39;;;;;;;5.32;4.38;;;;;;;17.11;70.18;100674.78;5047202;28;20057;-64
2022/07/24 00:41:06;;;;;;;5.28;4.18;;;;;;;17.14;70.16;100671.28;5046571;28;20052;-63
2022/07/24 00:43:34;;;;;;;4.20;3.72;;;;;;;17.13;70.00;100672.44;5043651;28;20749;-64
2022/07/24 00:46:01;;;;;;;4.25;3.85;;;;;;;17.09;70.25;100668.69;5045586;28;20749;-63
2022/07/24 00:48:29;;;;;;;7.75;4.82;;;;;;;17.11;70.13;100671.97;5044709;28;20052;-64
2022/07/24 00:50:58;;;;;;;5.22;4.65;;;;;;;17.09;69.95;100674.34;5044866;28;20063;-62
2022/07/24 00:53:25;;;;;;;5.57;4.50;;;;;;;17.08;69.91;100672.69;5051416;28;20079;-64
2022/07/24 00:55:52;;;;;;;5.30;4.05;;;;;;;16.97;70.36;100670.38;5044365;28;20059;-63
2022/07/24 00:58:20;;;;;;;4.18;3.78;;;;;;;16.97;70.09;100670.38;5044857;28;20455;-62
2022/07/24 01:00:47;;;;;;;5.32;4.43;;;;;;;16.96;69.97;100670.72;5045286;28;20052;-63
2022/07/24 01:03:15;;;;;;;5.22;4.05;;;;;;;16.93;70.20;100663.00;5045224;28;20052;-63
2022/07/24 01:05:49;;;;;;;5.50;4.40;;;;;;;16.87;70.25;100668.03;5045414;28;20049;-62
2022/07/24 01:08:18;;;;;;;5.13;4.25;;;;;;;16.86;70.56;100666.38;5047766;28;20057;-63
2022/07/24 01:10:45;;;;;;;7.88;4.80;;;;;;;16.82;70.52;100666.28;5049636;28;20052;-62
2022/07/24 01:13:12;;;;;;;5.47;4.50;;;;;;;16.80;70.66;100664.97;5046208;28;20063;-63
2022/07/24 01:15:40;;;;;;;5.07;4.60;;;;;;;16.79;70.72;100664.13;5056165;28;20053;-63
2022/07/24 01:18:10;;;;;;;6.90;5.35;;;;;;;16.79;70.67;100671.75;5049922;28;20049;-63
2022/07/24 01:20:39;;;;;;;5.25;4.75;;;;;;;16.76;70.88;100672.47;5047155;28;20422;-62
2022/07/24 01:23:07;;;;;;;5.13;4.63;;;;;;;16.74;70.87;100672.00;5049478;28;20056;-61
2022/07/24 01:25:34;;;;;;;6.03;5.03;;;;;;;16.72;71.01;100683.59;5055989;28;20048;-62
2022/07/24 01:28:03;;;;;;;6.15;4.80;;;;;;;16.75;70.83;100682.06;5052436;28;20049;-63
2022/07/24 01:30:30;;;;;;;5.30;4.80;;;;;;;16.72;70.82;100682.78;5049358;28;20489;-63
2022/07/24 01:32:58;;;;;;;6.85;4.50;;;;;;;16.68;71.07;100682.66;5049775;28;21541;-63
2022/07/24 01:35:27;;;;;;;6.38;4.70;;;;;;;16.70;70.97;100687.94;5048847;28;20837;-62
2022/07/24 01:37:58;;;;;;;5.40;4.80;;;;;;;16.67;70.69;100680.19;5049133;28;20057;-63
2022/07/24 01:40:26;;;;;;;5.47;4.43;;;;;;;16.64;70.68;100671.25;5054594;28;20049;-64
2022/07/24 01:42:54;;;;;;;6.65;5.13;;;;;;;16.63;71.05;100678.09;5045991;28;20061;-63
2022/07/24 01:45:21;;;;;;;6.78;5.10;;;;;;;16.63;71.00;100669.66;5045658;28;20064;-63
2022/07/24 01:47:48;;;;;;;6.35;5.72;;;;;;;16.62;71.23;100673.59;5048229;28;20352;-63
2022/07/24 01:50:16;;;;;;;8.02;5.75;;;;;;;16.62;71.01;100679.22;5046527;28;20140;-62
2022/07/24 01:52:43;;;;;;;6.15;5.55;;;;;;;16.59;71.32;100674.31;5049648;28;20059;-62
2022/07/24 01:55:12;;;;;;;6.43;5.35;;;;;;;16.60;71.17;100677.94;5053756;28;20069;-63
2022/07/24 01:57:40;;;;;;;6.78;5.15;;;;;;;16.56;71.30;100672.19;5047555;28;20088;-62
2022/07/24 02:00:11;;;;;;;9.85;6.30;;;;;;;16.54;71.37;100676.53;5049122;28;20056;-63
2022/07/24 02:02:38;;;;;;;7.75;6.38;;;;;;;16.37;72.02;100671.94;5046200;28;20053;-63
2022/07/24 02:05:06;;;;;;;6.93;6.07;;;;;;;16.42;71.74;100671.72;5048764;28;20064;-63
2022/07/24 02:07:34;;;;;;;6.95;6.13;;;;;;;16.44;71.51;100677.81;5046487;28;20490;-63
2022/07/24 02:10:01;;;;;;;9.80;6.20;;;;;;;16.44;71.65;100672.19;5048610;28;20409;-63
2022/07/24 02:12:30;;;;;;;6.57;5.90;;;;;;;16.43;71.60;100665.75;5046939;28;20410;-62
2022/07/24 02:14:58;;;;;;;8.00;6.23;;;;;;;16.44;71.48;100661.78;5050534;28;20049;-63
2022/07/24 02:17:25;;;;;;;7.97;6.53;;;;;;;16.40;71.61;100668.47;5044972;28;20499;-63
2022/07/24 02:19:52;;;;;;;6.43;5.75;;;;;;;16.40;71.52;100663.66;5045770;28;20049;-63
2022/07/24 02:22:20;;;;;;;8.70;6.18;;;;;;;16.38;71.56;100662.38;5048468;28;20449;-61
2022/07/24 02:24:47;;;;;;;7.78;6.35;;;;;;;16.31;71.82;100662.09;5053652;28;20049;-62
2022/07/24 02:27:14;;;;;;;8.90;6.90;;;;;;;16.33;71.77;100660.56;5047463;28;21527;-62
2022/07/24 02:29:43;;;;;;;8.43;6.78;;;;;;;16.28;72.12;100657.19;5054783;28;20048;-63
2022/07/24 02:32:10;;;;;;;8.40;7.20;;;;;;;16.21;72.41;100661.38;5048206;28;21526;-63
2022/07/24 02:34:38;;;;;;;8.77;7.28;;;;;;;16.23;72.19;100667.47;5045650;28;20052;-63
2022/07/24 02:37:05;;;;;;;9.38;7.47;;;;;;;16.24;72.05;100660.69;5049657;28;20080;-63
2022/07/24 02:39:33;;;;;;;8.07;6.63;;;;;;;16.26;72.05;100659.53;5053549;28;20053;-63
2022/07/24 02:42:00;;;;;;;8.52;7.00;;;;;;;16.21;72.16;100661.38;5047361;28;20048;-63
2022/07/24 02:44:27;;;;;;;8.98;6.43;;;;;;;16.24;72.17;100655.06;5047359;28;20417;-60
2022/07/24 02:46:56;;;;;;;8.60;7.40;;;;;;;16.24;72.15;100659.88;5046524;28;20383;-60
2022/07/24 02:49:23;;;;;;;8.57;7.00;;;;;;;16.21;72.16;100650.16;5046945;28;20056;-60
2022/07/24 02:51:50;;;;;;;9.38;7.93;;;;;;;16.22;72.34;100653.78;5048098;28;20048;-60
2022/07/24 02:54:18;;;;;;;8.13;7.32;;;;;;;16.19;72.64;100643.22;5046013;28;20056;-60
2022/07/24 02:56:46;;;;;;;7.95;7.03;;;;;;;16.19;72.53;100646.88;5050251;28;20768;-59
2022/07/24 02:59:13;;;;;;;7.68;6.93;;;;;;;16.21;72.38;100652.97;5048663;28;20049;-60
2022/07/24 03:01:41;;;;;;;8.93;8.02;;;;;;;16.20;72.62;100654.09;5046327;28;20049;-60
2022/07/24 03:04:09;;;;;;;8.52;6.93;;;;;;;16.18;72.50;100656.44;5048002;28;20048;-59
2022/07/24 03:06:36;;;;;;;7.90;7.10;;;;;;;16.19;72.35;100643.22;5046120;28;20064;-59
2022/07/24 03:09:04;;;;;;;9.85;8.82;;;;;;;16.10;72.48;100640.50;5044045;28;20041;-60
2022/07/24 03:11:31;;;;;;;8.07;7.25;;;;;;;16.03;72.93;100638.25;5046312;28;20053;-60
2022/07/24 03:13:59;;;;;;;10.07;8.02;;;;;;;16.03;72.81;100631.84;5043944;28;20045;-59
2022/07/24 03:16:26;;;;;;;9.65;7.55;;;;;;;16.03;72.58;100640.25;5043243;28;20119;-60
2022/07/24 03:18:53;;;;;;;9.77;8.35;;;;;;;16.01;72.50;100642.59;5046119;28;20059;-60
2022/07/24 03:21:22;;;;;;;9.68;8.50;;;;;;;16.00;72.63;100635.31;5045605;28;20064;-60
2022/07/24 03:23:49;;;;;;;8.50;7.60;;;;;;;16.01;72.50;100634.16;5048388;28;20397;-60
2022/07/24 03:26:16;;;;;;;8.95;7.93;;;;;;;16.02;72.53;100633.00;5058608;28;20060;-60
2022/07/24 03:28:44;;;;;;;9.75;7.30;;;;;;;16.02;72.52;100633.00;5047632;28;20041;-59
2022/07/24 03:31:11;;;;;;;8.32;6.55;;;;;;;16.01;72.77;100632.16;5047835;28;20067;-61
2022/07/24 03:33:38;;;;;;;10.65;7.95;;;;;;;16.00;72.63;100638.97;5046244;28;20060;-60
2022/07/24 03:36:06;;;;;;;9.35;7.53;;;;;;;16.01;72.57;100642.59;5045726;28;20085;-60
2022/07/24 03:38:35;;;;;;;9.55;7.40;;;;;;;15.96;72.97;100640.03;5048852;28;20048;-60
2022/07/24 03:41:02;;;;;;;12.00;8.07;;;;;;;15.96;72.56;100640.84;5045438;28;20049;-60
2022/07/24 03:43:30;;;;;;;8.80;7.90;;;;;;;15.92;73.02;100633.47;5046646;28;20135;-60
2022/07/24 03:45:57;;;;;;;9.98;7.47;;;;;;;15.96;72.89;100640.03;5049956;28;20366;-59
2022/07/24 03:48:24;;;;;;;9.30;7.60;;;;;;;15.92;73.11;100639.06;5044373;28;20481;-59
2022/07/24 03:50:52;;;;;;;10.98;8.18;;;;;;;15.96;72.96;100640.03;5047155;28;20055;-60
2022/07/24 03:53:19;;;;;;;7.88;7.10;;;;;;;15.97;73.09;100639.66;5045156;28;20060;-59
2022/07/24 03:55:47;;;;;;;11.23;8.13;;;;;;;16.00;72.65;100638.13;5044324;28;20045;-59
2022/07/24 03:58:15;;;;;;;10.30;7.53;;;;;;;15.99;72.46;100644.94;5052910;28;20069;-59
2022/07/24 04:00:42;;;;;;;10.20;7.68;;;;;;;16.03;72.16;100651.50;5047344;28;20489;-60
2022/07/24 04:03:09;;;;;;;10.57;7.45;;;;;;;16.06;71.84;100649.97;5044612;28;20520;-59
2022/07/24 04:05:37;;;;;;;9.88;7.78;;;;;;;16.02;72.07;100644.22;5045263;28;20068;-60
2022/07/24 04:08:04;;;;;;;7.68;6.80;;;;;;;16.11;71.87;100653.41;5046414;28;20497;-60
2022/07/24 04:10:31;;;;;;;8.32;7.13;;;;;;;16.11;72.02;100653.41;5043871;28;20049;-60
2022/07/24 04:13:00;;;;;;;9.63;7.65;;;;;;;16.17;71.58;100654.00;5043529;28;20052;-60
2022/07/24 04:15:27;;;;;;;10.00;7.03;;;;;;;16.18;71.76;100647.19;5043242;28;20049;-59
2022/07/24 04:17:55;;;;;;;7.88;6.80;;;;;;;16.26;71.65;100654.72;5044998;28;20068;-58
2022/07/24 04:20:22;;;;;;;9.07;8.18;;;;;;;16.31;71.99;100653.66;5046449;28;20051;-59
2022/07/24 04:22:49;;;;;;;8.98;7.95;;;;;;;16.37;71.93;100649.47;5046664;28;20050;-59
2022/07/24 04:25:16;;;;;;;9.95;6.95;;;;;;;16.45;71.75;100659.78;5052573;28;20053;-60
2022/07/24 04:27:44;;;;;;;7.97;7.13;;;;;;;16.51;71.71;100654.75;5051535;28;20064;-60
2022/07/24 04:30:13;;;;;;;9.65;7.90;;;;;;;16.52;71.73;100656.38;5043693;28;20053;-60
2022/07/24 04:32:41;;;;;;;8.70;7.88;;;;;;;16.60;71.51;100652.63;5043781;28;20061;-60
2022/07/24 04:35:08;;;;;;;9.30;7.88;;;;;;;16.64;71.54;100653.59;5045208;28;20057;-59
2022/07/24 04:37:36;;;;;;;8.88;7.82;;;;;;;16.69;71.46;100636.47;5043134;28;20048;-59
2022/07/24 04:40:03;;;;;;;7.75;7.05;;;;;;;16.74;71.48;100639.06;5050273;28;20056;-59
2022/07/24 04:42:31;;;;;;;9.48;7.72;;;;;;;16.70;71.72;100637.31;5043502;28;20061;-59
2022/07/24 04:44:58;;;;;;;9.90;7.47;;;;;;;16.82;71.25;100637.31;5044921;28;20060;-59
2022/07/24 04:47:27;;;;;;;8.32;7.53;;;;;;;16.88;71.11;100635.88;5048659;28;20155;-59
2022/07/24 04:49:54;;;;;;;8.10;7.30;;;;;;;16.91;71.16;100629.56;5046731;28;20049;-59
2022/07/24 04:52:21;;;;;;;11.00;7.07;;;;;;;16.94;71.08;100628.03;5044456;28;20056;-59
2022/07/24 04:54:49;;;;;;;9.82;8.82;;;;;;;16.96;70.91;100628.50;5042879;28;20499;-60
2022/07/24 04:57:16;;;;;;;9.30;7.38;;;;;;;16.93;70.98;100638.47;5048796;28;20409;-59
2022/07/24 04:59:43;;;;;;;8.65;7.30;;;;;;;16.98;70.85;100635.41;5043895;28;20041;-60
2022/07/24 05:02:11;;;;;;;9.15;8.13;;;;;;;16.98;71.00;100626.97;5043006;28;20410;-59
2022/07/24 05:04:39;;;;;;;9.55;7.70;;;;;;;17.13;70.43;100638.66;5047105;28;20055;-59
2022/07/24 05:07:06;;;;;;;8.27;7.47;;;;;;;17.16;70.26;100632.34;5047303;28;20049;-60
2022/07/24 05:09:34;;;;;;;10.68;7.65;;;;;;;17.30;69.93;100646.03;5046967;28;20497;-59
2022/07/24 05:12:01;;;;;;;8.52;7.75;;;;;;;17.37;69.52;100638.63;5044064;28;20045;-59
2022/07/24 05:14:28;;;;;;;9.27;7.93;;;;;;;17.45;69.41;100640.47;5043968;28;20045;-59
2022/07/24 05:16:56;;;;;;;9.20;8.15;;;;;;;17.51;69.20;100635.38;5042957;28;20060;-60
2022/07/24 05:19:23;;;;;;;8.13;7.07;;;;;;;17.60;69.00;100638.06;5044353;28;20052;-59
2022/07/24 05:21:52;;;;;;;9.60;7.88;;;;;;;17.67;68.96;100631.81;5044248;28;20056;-59
2022/07/24 05:24:19;;;;;;;9.57;8.33;;;;;;;17.76;68.91;100635.28;5043804;28;20641;-59
2022/07/24 05:26:46;;;;;;;11.43;8.93;;;;;;;17.81;68.81;100632.22;5050383;28;20059;-59
2022/07/24 05:29:13;;;;;;;11.25;9.63;;;;;;;17.77;68.82;100643.41;5050865;28;20056;-59
2022/07/24 05:31:41;;;;;;;9.68;8.68;;;;;;;17.87;68.77;100639.28;5044775;28;20048;-60
2022/07/24 05:34:08;;;;;;;8.05;7.28;;;;;;;17.98;68.80;100633.94;5051592;28;20045;-59
2022/07/24 05:36:36;;;;;;;8.40;7.55;;;;;;;18.05;68.66;100628.47;5044537;28;20426;-59
2022/07/24 05:39:05;;;;;;;8.50;7.55;;;;;;;18.19;68.14;100628.88;5045626;28;20053;-59
2022/07/24 05:41:33;;;;;;;8.80;7.90;;;;;;;18.31;67.87;100627.13;5044449;28;20083;-59
2022/07/24 05:44:00;;;;;;;8.15;7.15;;;;;;;18.35;67.53;100619.59;5045882;28;20405;-59
2022/07/24 05:46:27;;;;;;;8.63;7.50;;;;;;;18.48;67.60;100623.97;5046845;28;20051;-60
2022/07/24 05:48:54;;;;;;;9.13;7.28;;;;;;;18.61;67.19;100625.50;5043071;28;20056;-59
2022/07/24 05:51:22;;;;;;;8.98;7.47;;;;;;;18.72;66.53;100613.66;5043823;28;20052;-60
2022/07/24 05:53:50;;;;;;;8.48;6.93;;;;;;;18.85;66.67;100618.81;5046081;28;20056;-59
2022/07/24 05:56:18;;;;;;;8.50;6.78;;;;;;;18.99;66.51;100620.38;5046586;28;20049;-59
2022/07/24 05:58:46;;;;;;;9.10;6.63;;;;;;;19.15;66.31;100629.63;5055993;28;20052;-59
2022/07/24 06:01:13;;;;;;;12.38;7.35;;;;;;;19.30;65.86;100621.44;5048691;28;20076;-59
2022/07/24 06:03:40;;;;;;;9.25;7.30;;;;;;;19.39;65.63;100617.22;5050510;28;20057;-58
2022/07/24 06:06:08;;;;;;;11.25;7.45;;;;;;;19.52;65.47;100617.88;5046652;28;20048;-59
2022/07/24 06:08:35;;;;;;;8.27;6.13;;;;;;;19.61;65.23;100615.66;5051182;28;20052;-59
2022/07/24 06:11:02;;;;;;;8.05;6.55;;;;;;;19.69;64.60;100619.44;5048070;28;20500;-59
2022/07/24 06:13:31;;;;;;;7.90;7.10;;;;;;;19.61;64.50;100614.81;5047291;28;20515;-59
2022/07/24 06:15:58;;;;;;;7.95;6.32;;;;;;;19.83;63.90;100622.56;5046771;28;20045;-60
2022/07/24 06:18:26;;;;;;;8.55;6.90;;;;;;;19.97;63.55;100626.84;5047063;28;20056;-60
2022/07/24 06:20:53;;;;;;;8.02;7.22;;;;;;;20.10;63.04;100619.84;5047762;28;20092;-59
2022/07/24 06:23:20;;;;;;;10.57;6.38;;;;;;;20.21;63.03;100615.19;5048661;28;20052;-60
2022/07/24 06:25:48;;;;;;;7.10;6.40;;;;;;;20.35;62.22;100622.28;5048327;28;20068;-59
2022/07/24 06:28:15;;;;;;;7.22;6.53;;;;;;;20.46;61.93;100615.63;5053411;28;20055;-60
2022/07/24 06:30:44;;;;;;;6.25;5.65;;;;;;;20.54;61.41;100618.59;5048481;28;22432;-59
2022/07/24 06:33:11;;;;;;;6.93;6.22;;;;;;;20.64;60.85;100613.16;5054464;28;20049;-59
2022/07/24 06:35:38;;;;;;;6.30;5.70;;;;;;;20.73;60.61;100609.22;5047566;28;20397;-59
2022/07/24 06:38:06;;;;;;;5.80;5.20;;;;;;;20.88;60.40;100613.91;5044381;28;20068;-60
2022/07/24 06:40:34;;;;;;;6.65;5.82;;;;;;;21.01;59.93;100612.47;5046534;28;20056;-60
2022/07/24 06:43:01;;;;;;;5.85;5.25;;;;;;;21.17;59.67;100605.81;5047683;28;20413;-59
2022/07/24 06:45:31;;;;;;;5.70;5.20;;;;;;;21.29;58.96;100614.91;5047848;28;20051;-60
2022/07/24 06:48:00;;;;;;;6.93;5.15;;;;;;;21.40;58.88;100612.22;5043049;28;20060;-59
2022/07/24 06:50:27;;;;;;;6.13;5.53;;;;;;;21.51;58.98;100608.72;5045738;28;20425;-58
2022/07/24 06:52:54;;;;;;;5.88;5.38;;;;;;;21.61;58.57;100603.19;5043757;28;20052;-59
2022/07/24 06:55:22;;;;;;;5.65;5.15;;;;;;;21.69;57.06;100601.22;5046301;28;20484;-59
2022/07/24 06:57:49;;;;;;;4.80;4.28;;;;;;;21.78;56.62;100595.28;5046066;28;20052;-59
2022/07/24 07:00:17;;;;;;;5.25;4.75;;;;;;;21.91;57.49;100605.13;5050510;28;20061;-47
2022/07/24 07:02:45;;;;;;;5.13;4.63;;;;;;;22.10;57.22;100601.28;5046501;28;20056;-50
2022/07/24 07:05:14;;;;;;;4.93;4.53;;;;;;;22.27;58.20;100606.31;5045161;28;20049;-47
2022/07/24 07:07:42;;;;;;;7.65;5.00;;;;;;;22.46;57.40;100610.13;5045985;28;20389;-49
2022/07/24 07:10:10;;;;;;;4.68;4.28;;;;;;;22.60;56.42;100593.22;5045597;28;20490;-50
2022/07/24 07:12:37;;;;;;;5.95;4.10;;;;;;;22.78;55.56;100603.88;5044555;28;20045;-47
2022/07/24 07:15:06;;;;;;;8.10;4.72;;;;;;;22.94;55.05;100595.06;5045078;28;20409;-50
2022/07/24 07:17:33;;;;;;;5.05;4.55;;;;;;;23.14;54.76;100604.13;5044262;28;20761;-47
2022/07/24 07:20:00;;;;;;;5.68;4.20;;;;;;;23.34;54.55;100610.34;5045961;28;20397;-47
2022/07/24 07:22:29;;;;;;;5.18;4.57;;;;;;;23.48;53.85;100602.69;5052261;28;20048;-47
2022/07/24 07:24:56;;;;;;;6.05;4.38;;;;;;;23.56;54.12;100591.34;5067135;28;20412;-51
2022/07/24 07:27:23;;;;;;;5.45;4.32;;;;;;;23.60;53.30;100595.84;5064195;28;20049;-50
2022/07/24 07:29:51;;;;;;;5.30;3.95;;;;;;;23.81;53.00;100599.97;5058670;28;20052;-48
2022/07/24 07:32:18;;;;;;;4.53;4.13;;;;;;;23.92;53.00;100600.84;5060876;28;20052;-46
2022/07/24 07:34:45;;;;;;;5.47;4.28;;;;;;;24.08;53.45;100601.25;5068588;28;20052;-46
2022/07/24 07:37:13;;;;;;;4.43;3.95;;;;;;;24.14;50.74;100593.13;5060628;28;20068;-47
2022/07/24 07:39:42;;;;;;;3.97;3.60;;;;;;;24.27;48.62;100597.25;5046478;28;20045;-49
2022/07/24 07:42:09;;;;;;;6.03;3.75;;;;;;;24.28;48.08;100592.34;5045054;28;20052;-47
2022/07/24 07:44:36;;;;;;;3.67;3.13;;;;;;;24.42;46.87;100585.84;5045173;28;20060;-47
2022/07/24 07:47:04;;;;;;;4.45;3.53;;;;;;;24.92;45.24;100592.34;5045448;28;20052;-48
2022/07/24 07:49:31;;;;;;;5.13;3.58;;;;;;;25.73;44.19;100583.91;5044948;28;20056;-47
2022/07/24 07:51:58;;;;;;;5.35;3.67;;;;;;;26.14;42.60;100585.28;5044189;28;20055;-47
2022/07/24 07:54:26;;;;;;;5.30;3.70;;;;;;;26.69;40.41;100587.34;5044771;28;20053;-47
2022/07/24 07:56:54;;;;;;;4.13;3.72;;;;;;;27.17;39.94;100582.72;5043828;28;20064;-47
2022/07/24 07:59:22;;;;;;;4.13;3.72;;;;;;;27.84;38.67;100579.44;5048667;28;20049;-48
2022/07/24 08:01:49;;;;;;;3.42;3.13;;;;;;;28.21;38.25;100581.38;5044300;28;20045;-48
2022/07/24 08:04:17;;;;;;;7.75;3.88;;;;;;;28.60;37.54;100584.84;5047277;28;20048;-47
2022/07/24 08:06:44;;;;;;;5.00;3.72;;;;;;;29.30;35.98;100584.75;5043731;28;20420;-60
2022/07/24 08:09:11;;;;;;;4.13;3.40;;;;;;;30.10;34.42;100576.03;5043219;28;20420;-59
2022/07/24 08:11:39;;;;;;;3.90;3.00;;;;;;;30.83;33.57;100578.75;5043392;28;20402;-59
2022/07/24 08:14:07;;;;;;;3.90;3.20;;;;;;;31.89;31.94;100573.22;5046188;28;20052;-60
2022/07/24 08:16:35;;;;;;;3.28;2.72;;;;;;;32.60;30.86;100569.28;5043024;28;20045;-60
2022/07/24 08:19:03;;;;;;;4.32;3.20;;;;;;;33.29;29.35;100579.22;5044083;28;20053;-60
2022/07/24 08:21:31;;;;;;;3.50;3.17;;;;;;;33.84;28.34;100570.09;5043367;28;20389;-60
2022/07/24 08:23:58;;;;;;;4.07;3.15;;;;;;;34.73;27.62;100565.59;5044969;28;20836;-58
2022/07/24 08:26:30;;;;;;;3.47;3.17;;;;;;;35.17;26.41;100562.41;5043041;28;20446;-59
2022/07/24 08:28:58;;;;;;;3.17;2.63;;;;;;;35.68;26.20;100558.81;5049343;28;20053;-60
2022/07/24 08:31:27;;;;;;;3.15;2.85;;;;;;;36.31;25.24;100559.03;5046649;28;20048;-60
2022/07/24 08:33:55;;;;;;;3.95;3.00;;;;;;;37.29;24.23;100569.28;5051070;28;20052;-61
2022/07/24 08:36:22;;;;;;;3.88;3.25;;;;;;;37.88;23.90;100566.41;5045693;28;20052;-61
2022/07/24 08:38:49;;;;;;;3.50;3.10;;;;;;;38.48;22.59;100563.38;5047334;28;20067;-61
2022/07/24 08:41:18;;;;;;;5.60;3.28;;;;;;;38.84;21.98;100561.22;5051696;28;20053;-61
2022/07/24 08:43:45;;;;;;;4.55;3.40;;;;;;;39.85;20.48;100553.56;5046807;28;20068;-60
2022/07/24 08:46:16;;;;;;;5.07;3.35;;;;;;;40.31;20.57;100555.50;5047770;28;20056;-61
2022/07/24 08:48:46;;;;;;;4.20;3.28;;;;;;;40.17;20.40;100554.34;5047168;28;20072;-61
2022/07/24 08:51:15;;;;;;;3.55;3.25;;;;;;;40.10;19.94;100559.84;5046784;28;20048;-61
2022/07/24 08:53:44;;;;;;;3.90;3.15;;;;;;;40.57;20.43;100554.56;5046828;28;20060;-61
2022/07/24 08:56:11;;;;;;;3.97;3.58;;;;;;;41.43;19.20;100554.34;5047526;28;20057;-61
2022/07/24 08:58:39;;;;;;;4.25;3.15;;;;;;;41.88;18.60;100548.56;5047232;28;20060;-61
2022/07/24 09:01:06;;;;;;;3.28;2.97;;;;;;;41.60;18.59;100554.41;5051792;28;20417;-61
2022/07/24 09:03:42;;;;;;;3.60;2.90;;;;;;;42.67;18.35;100554.25;5047590;28;20405;-61
2022/07/24 09:06:12;;;;;;;4.47;3.00;;;;;;;42.90;17.69;100557.13;5047450;28;20501;-61
2022/07/24 09:08:40;;;;;;;3.20;2.90;;;;;;;43.92;17.52;100551.38;5046440;28;20163;-61
2022/07/24 09:11:09;;;;;;;3.72;3.42;;;;;;;44.52;16.03;100560.13;5044942;28;20049;-62
2022/07/24 09:16:24;;;;;;;3.43;3.13;;;;;;;45.88;15.52;100537.56;5049828;28;20417;-61
2022/07/24 09:19:02;;;;;;;6.07;3.63;;;;;;;46.41;14.78;100545.72;5045440;28;20064;-62
2022/07/24 09:21:33;;;;;;;3.33;3.03;;;;;;;47.13;14.61;100534.50;5045094;28;20053;-61
2022/07/24 09:24:02;;;;;;;6.20;3.78;;;;;;;47.66;13.79;100544.53;5046144;28;20091;-61
2022/07/24 09:26:44;;;;;;;3.78;3.05;;;;;;;47.13;13.74;100549.25;5047529;28;20055;-61
2022/07/24 09:29:12;;;;;;;4.32;3.35;;;;;;;46.53;14.08;100541.97;5051807;28;20048;-61
2022/07/24 09:31:53;;;;;;;4.95;3.47;;;;;;;46.47;14.65;100549.34;5051557;28;20053;-61
2022/07/24 09:34:21;;;;;;;5.03;3.30;;;;;;;46.61;14.64;100542.09;5053610;28;20045;-61
2022/07/24 09:37:01;;;;;;;4.30;3.28;;;;;;;47.69;13.87;100537.47;5052487;28;20045;-62
2022/07/24 09:39:31;;;;;;;4.15;3.25;;;;;;;48.25;13.33;100524.16;5047820;28;20061;-62
2022/07/24 09:42:00;;;;;;;3.85;3.00;;;;;;;47.72;13.24;100525.31;5047345;28;20049;-61
2022/07/24 09:44:29;;;;;;;3.95;3.50;;;;;;;48.25;13.19;100526.31;5048087;28;20049;-61
2022/07/24 09:46:58;;;;;;;3.58;3.20;;;;;;;48.11;13.40;100519.72;5049734;28;20052;-61
2022/07/24 09:49:26;;;;;;;3.78;3.40;;;;;;;48.90;13.17;100524.13;5047449;28;20068;-61
2022/07/24 09:52:16;;;;;;;4.50;3.22;;;;;;;49.57;12.48;100526.31;5053015;28;20056;-61
2022/07/24 09:54:47;;;;;;;3.75;3.22;;;;;;;49.73;12.09;100524.97;5048885;28;20048;-61
2022/07/24 09:57:20;;;;;;;4.28;3.53;;;;;;;47.91;12.61;100524.31;5053930;28;20056;-62
2022/07/24 09:59:50;;;;;;;3.90;3.22;;;;;;;48.03;12.94;100525.59;5051874;28;20413;-61
2022/07/24 10:02:19;;;;;;;7.88;4.60;;;;;;;48.30;12.76;100520.28;5052443;28;20048;-62
2022/07/24 10:04:48;;;;;;;4.50;3.85;;;;;;;48.63;12.40;100514.75;5049384;28;20405;-64
2022/07/24 10:07:19;;;;;;;4.38;3.85;;;;;;;46.83;13.33;100516.44;5049485;28;20532;-63
2022/07/24 10:09:50;;;;;;;4.70;3.60;;;;;;;46.51;13.70;100514.44;5047601;28;20838;-63
2022/07/24 10:12:19;;;;;;;4.07;3.70;;;;;;;47.07;13.94;100513.19;5051377;28;20045;-63
2022/07/24 10:14:49;;;;;;;4.28;3.40;;;;;;;46.14;14.01;100513.31;5049090;28;20052;-63
2022/07/24 10:17:17;;;;;;;3.90;3.50;;;;;;;47.31;13.61;100505.41;5049139;28;20075;-62
2022/07/24 10:19:46;;;;;;;6.05;3.90;;;;;;;47.22;13.77;100506.69;5048982;28;20057;-62
2022/07/24 10:22:16;;;;;;;4.43;4.00;;;;;;;48.71;12.66;100512.63;5050325;28;20400;-62
2022/07/24 10:25:00;;;;;;;3.85;3.47;;;;;;;48.85;12.90;100506.56;5048238;28;20048;-62
2022/07/24 10:27:30;;;;;;;3.67;3.30;;;;;;;48.99;12.65;100495.41;5049936;28;20052;-62
2022/07/24 10:29:59;;;;;;;3.58;3.28;;;;;;;49.30;12.14;100499.22;5049178;28;20044;-62
2022/07/24 10:32:28;;;;;;;4.10;3.70;;;;;;;49.14;12.01;100507.25;5048765;28;20238;-61
2022/07/24 10:35:14;;;;;;;3.97;3.60;;;;;;;47.54;13.07;100503.50;5047144;28;20056;-61
2022/07/24 10:37:53;;;;;;;3.60;3.28;;;;;;;46.37;14.19;100502.63;5043279;28;20060;-61
2022/07/24 10:40:28;;;;;;;4.13;3.72;;;;;;;46.11;14.33;100499.69;5046427;28;20057;-61
2022/07/24 10:43:13;;;;;;;4.05;3.72;;;;;;;47.49;13.11;100489.66;5045060;28;20064;-62
2022/07/24 10:45:43;;;;;;;4.07;3.67;;;;;;;47.97;12.92;100496.19;5046047;28;20393;-62
2022/07/24 10:48:27;;;;;;;4.00;3.60;;;;;;;47.95;12.97;100489.28;5049160;28;20071;-61
2022/07/24 10:51:07;;;;;;;3.83;3.40;;;;;;;48.41;12.61;100492.56;5045848;28;20056;-61
2022/07/24 10:53:53;;;;;;;3.65;3.35;;;;;;;48.52;12.55;100482.56;5047205;28;20052;-62
2022/07/24 10:56:25;;;;;;;3.77;3.47;;;;;;;48.86;12.68;100479.34;5045957;28;20067;-61
2022/07/24 10:59:01;;;;;;;4.25;3.08;;;;;;;49.44;11.88;100468.06;5045541;28;20053;-61
2022/07/24 11:01:31;;;;;;;3.78;3.47;;;;;;;49.91;11.65;100472.59;5052055;28;20462;-61
2022/07/24 11:03:59;;;;;;;4.22;3.65;;;;;;;49.57;11.43;100467.09;5045996;28;20090;-62
2022/07/24 11:06:43;;;;;;;4.90;3.78;;;;;;;47.08;12.89;100478.59;5045802;28;20060;-61
2022/07/24 11:09:10;;;;;;;3.88;3.40;;;;;;;46.93;13.30;100467.41;5044403;28;20064;-61
2022/07/24 11:11:43;;;;;;;4.60;3.70;;;;;;;46.10;13.64;100474.56;5048379;28;20064;-61
2022/07/24 11:14:11;;;;;;;4.25;3.70;;;;;;;46.61;13.22;100471.34;5046536;28;20071;-61
2022/07/24 11:16:38;;;;;;;4.22;3.70;;;;;;;45.57;14.42;100463.44;5047285;28;20407;-61
2022/07/24 11:19:28;;;;;;;5.32;3.90;;;;;;;44.95;14.47;100467.41;5045526;28;20055;-61
2022/07/24 11:22:10;;;;;;;4.97;3.30;;;;;;;44.76;14.36;100479.94;5044646;28;20064;-61
2022/07/24 11:24:42;;;;;;;3.95;3.55;;;;;;;44.82;14.47;100461.44;5051363;28;20049;-61
2022/07/24 11:27:18;;;;;;;4.80;3.40;;;;;;;44.72;14.39;100455.94;5048088;28;20064;-61
2022/07/24 11:29:46;;;;;;;4.00;3.53;;;;;;;45.50;14.15;100453.13;5046172;28;20061;-61
2022/07/24 11:32:17;;;;;;;3.75;3.45;;;;;;;46.35;13.53;100455.28;5051769;28;20401;-61
2022/07/24 11:34:47;;;;;;;3.90;3.45;;;;;;;47.45;12.86;100450.84;5044946;28;20049;-61